Time;durP1;ratioP1;P1;durP2;ratioP2;P2;SDS_P1;SDS_P2;PMS_P1;PMS_P2;Temp;Humidity;BMP_temperature;BMP_pressure;BME280_temperature;BME280_humidity;BME280_pressure;Samples;Min_cycle;Max_cycle;Signal;HPM_P1;HPM_P2
2023/09/30 00:00:44;;;;;;;20.80;5.97;;;11.70;83.40;;;;;;5075853;28;20047;-65
2023/09/30 00:03:10;;;;;;;22.80;6.50;;;11.70;83.30;;;;;;5078727;28;20052;-66
2023/09/30 00:05:36;;;;;;;23.83;6.13;;;11.60;83.50;;;;;;5073075;28;20048;-65
2023/09/30 00:08:04;;;;;;;25.38;6.07;;;11.60;83.50;;;;;;5080963;28;20397;-65
2023/09/30 00:10:30;;;;;;;20.40;6.75;;;11.50;83.50;;;;;;5082868;28;20062;-66
2023/09/30 00:12:56;;;;;;;22.88;6.53;;;11.50;83.60;;;;;;5082747;28;20387;-65
2023/09/30 00:15:22;;;;;;;22.50;6.05;;;11.50;83.60;;;;;;5083275;28;20044;-65
2023/09/30 00:17:48;;;;;;;20.65;6.72;;;11.50;83.60;;;;;;5081409;28;20043;-65
2023/09/30 00:20:17;;;;;;;22.95;6.13;;;11.50;83.70;;;;;;5079104;28;20420;-65
2023/09/30 00:22:43;;;;;;;24.77;7.32;;;11.50;83.90;;;;;;5079358;28;20507;-65
2023/09/30 00:25:10;;;;;;;26.73;6.78;;;11.50;83.90;;;;;;5068953;28;20113;-65
2023/09/30 00:27:36;;;;;;;24.00;6.40;;;11.40;83.90;;;;;;5068765;28;20091;-66
2023/09/30 00:30:03;;;;;;;28.67;6.50;;;11.40;84.00;;;;;;5070052;28;20537;-66
2023/09/30 00:32:29;;;;;;;18.63;6.00;;;11.40;84.00;;;;;;5080373;28;20287;-66
2023/09/30 00:34:54;;;;;;;19.17;5.60;;;11.40;84.00;;;;;;5076905;28;20048;-65
2023/09/30 00:37:20;;;;;;;23.50;6.15;;;11.40;84.20;;;;;;5076368;28;20553;-65
2023/09/30 00:39:46;;;;;;;18.77;5.97;;;11.30;84.30;;;;;;5066777;28;20056;-65
2023/09/30 00:42:12;;;;;;;17.48;5.57;;;11.40;84.10;;;;;;5081853;28;20051;-65
2023/09/30 00:44:38;;;;;;;17.00;5.63;;;11.40;84.10;;;;;;5073460;28;20044;-64
2023/09/30 00:47:04;;;;;;;21.83;5.15;;;11.40;84.00;;;;;;5084481;28;20452;-66
2023/09/30 00:49:31;;;;;;;17.02;5.13;;;11.40;84.00;;;;;;5067438;28;20044;-65
2023/09/30 00:51:57;;;;;;;21.02;5.40;;;11.30;84.00;;;;;;5071906;28;20045;-64
2023/09/30 00:54:25;;;;;;;19.90;5.00;;;11.30;84.00;;;;;;5068591;28;20083;-65
2023/09/30 00:56:55;;;;;;;19.77;5.40;;;11.30;84.00;;;;;;5080473;28;20113;-66
2023/09/30 00:59:21;;;;;;;25.38;5.43;;;11.30;84.00;;;;;;5068190;28;20433;-65
2023/09/30 01:01:47;;;;;;;14.95;4.90;;;11.30;84.10;;;;;;5068272;28;20127;-65
2023/09/30 01:04:13;;;;;;;23.83;4.95;;;11.30;84.20;;;;;;5068004;28;20049;-65
2023/09/30 01:06:39;;;;;;;17.77;5.75;;;11.30;84.10;;;;;;5085258;28;20040;-66
2023/09/30 01:09:05;;;;;;;18.67;5.68;;;11.30;84.40;;;;;;5088287;28;20097;-66
2023/09/30 01:11:31;;;;;;;18.58;4.97;;;11.30;84.30;;;;;;5088399;28;20046;-65
2023/09/30 01:13:57;;;;;;;18.83;5.22;;;11.40;84.40;;;;;;5088037;28;20416;-65
2023/09/30 01:16:23;;;;;;;22.58;5.53;;;11.40;84.40;;;;;;5088811;28;20123;-66
2023/09/30 01:18:50;;;;;;;17.10;5.45;;;11.40;84.60;;;;;;5088674;28;20076;-65
2023/09/30 01:21:16;;;;;;;21.33;5.97;;;11.50;84.70;;;;;;5085780;28;20051;-62
2023/09/30 01:23:43;;;;;;;19.08;5.63;;;11.50;84.70;;;;;;5074901;28;20052;-63
2023/09/30 01:26:12;;;;;;;25.13;5.97;;;11.50;84.60;;;;;;5085246;28;20334;-65
2023/09/30 01:28:38;;;;;;;15.45;5.60;;;11.50;84.50;;;;;;5068366;28;20044;-65
2023/09/30 01:31:04;;;;;;;20.45;5.75;;;11.50;84.50;;;;;;5067937;28;20454;-66
2023/09/30 01:33:30;;;;;;;20.67;6.20;;;11.50;84.50;;;;;;5078171;28;20064;-66
2023/09/30 01:35:56;;;;;;;23.38;7.20;;;11.50;84.40;;;;;;5070959;28;20040;-65
2023/09/30 01:38:22;;;;;;;15.77;6.28;;;11.50;84.50;;;;;;5067503;28;20577;-65
2023/09/30 01:40:48;;;;;;;18.63;6.22;;;11.50;84.40;;;;;;5074880;28;20412;-66
2023/09/30 01:43:15;;;;;;;22.92;6.13;;;11.50;84.40;;;;;;5088119;28;20040;-65
2023/09/30 01:45:41;;;;;;;19.35;6.30;;;11.50;84.50;;;;;;5083758;28;20044;-65
2023/09/30 01:48:10;;;;;;;26.05;6.78;;;11.50;84.60;;;;;;5067841;28;20068;-66
2023/09/30 01:50:37;;;;;;;17.08;6.03;;;11.50;84.60;;;;;;5071610;28;20161;-65
2023/09/30 01:53:06;;;;;;;21.75;6.80;;;11.50;84.50;;;;;;5087987;28;20044;-65
2023/09/30 01:55:35;;;;;;;18.08;6.57;;;11.50;84.50;;;;;;5086878;28;20531;-66
2023/09/30 01:58:02;;;;;;;19.80;6.20;;;11.50;84.50;;;;;;5088174;28;20047;-65
2023/09/30 02:00:28;;;;;;;23.05;6.47;;;11.40;84.40;;;;;;5087961;28;20442;-65
2023/09/30 02:02:55;;;;;;;18.98;6.80;;;11.40;84.50;;;;;;5088802;28;20052;-66
2023/09/30 02:05:22;;;;;;;19.77;6.60;;;11.40;84.50;;;;;;5091880;28;20087;-65
2023/09/30 02:07:48;;;;;;;20.77;6.50;;;11.40;84.50;;;;;;5078370;28;20098;-65
2023/09/30 02:10:14;;;;;;;23.88;6.68;;;11.30;84.60;;;;;;5091762;28;20086;-65
2023/09/30 02:12:40;;;;;;;21.95;5.72;;;11.30;84.60;;;;;;5091754;28;20128;-65
2023/09/30 02:15:07;;;;;;;26.02;7.10;;;11.30;84.60;;;;;;5091086;28;20085;-65
2023/09/30 02:17:33;;;;;;;21.67;6.22;;;11.40;84.70;;;;;;5091633;28;20243;-65
2023/09/30 02:20:01;;;;;;;20.38;6.22;;;11.40;84.70;;;;;;5091311;28;20108;-66
2023/09/30 02:22:28;;;;;;;23.42;6.40;;;11.40;84.70;;;;;;5088716;28;20104;-63
2023/09/30 02:24:54;;;;;;;23.52;6.55;;;11.40;84.80;;;;;;5081141;28;20079;-63
2023/09/30 02:27:20;;;;;;;15.25;6.05;;;11.40;84.70;;;;;;5078493;28;20421;-66
2023/09/30 02:29:46;;;;;;;19.92;6.20;;;11.40;84.80;;;;;;5089970;28;20129;-65
2023/09/30 02:32:13;;;;;;;18.35;5.85;;;11.50;84.70;;;;;;5089532;28;20055;-66
2023/09/30 02:34:39;;;;;;;18.88;6.47;;;11.50;84.70;;;;;;5090537;28;20044;-65
2023/09/30 02:37:05;;;;;;;22.10;6.03;;;11.50;84.60;;;;;;5078119;28;20397;-65
2023/09/30 02:39:30;;;;;;;16.77;5.95;;;11.50;84.70;;;;;;5091047;28;20119;-66
2023/09/30 02:41:56;;;;;;;18.90;5.53;;;11.50;84.70;;;;;;5090307;28;20047;-66
2023/09/30 02:44:22;;;;;;;17.92;5.55;;;11.50;84.70;;;;;;5091214;28;20089;-66
2023/09/30 02:46:48;;;;;;;15.90;5.65;;;11.50;84.60;;;;;;5077919;28;20052;-65
2023/09/30 02:49:13;;;;;;;18.13;5.63;;;11.50;84.70;;;;;;5070873;28;20052;-65
2023/09/30 02:51:39;;;;;;;17.95;5.57;;;11.40;84.50;;;;;;5084063;28;20048;-65
2023/09/30 02:54:05;;;;;;;19.92;5.65;;;11.40;84.60;;;;;;5090399;28;20327;-65
2023/09/30 02:56:30;;;;;;;17.38;5.38;;;11.40;84.70;;;;;;5090776;28;20040;-65
2023/09/30 02:58:57;;;;;;;17.02;5.65;;;11.40;84.80;;;;;;5090001;28;20044;-65
2023/09/30 03:01:23;;;;;;;15.80;4.85;;;11.40;84.80;;;;;;5072622;28;20506;-65
2023/09/30 03:03:49;;;;;;;16.75;5.32;;;11.40;84.90;;;;;;5090590;28;20093;-66
2023/09/30 03:06:15;;;;;;;17.95;5.28;;;11.40;84.90;;;;;;5090217;28;20079;-65
2023/09/30 03:08:41;;;;;;;18.67;5.50;;;11.50;84.90;;;;;;5090719;28;20367;-65
2023/09/30 03:11:07;;;;;;;15.63;4.90;;;11.50;84.90;;;;;;5090690;28;20523;-66
2023/09/30 03:13:33;;;;;;;14.90;4.53;;;11.50;84.90;;;;;;5090569;28;20051;-66
2023/09/30 03:16:01;;;;;;;16.45;4.55;;;11.50;84.90;;;;;;5074987;28;20166;-66
2023/09/30 03:18:28;;;;;;;17.98;5.22;;;11.50;84.90;;;;;;5070429;28;20052;-66
2023/09/30 03:21:08;;;;;;;20.17;5.10;;;11.50;84.90;;;;;;5072512;28;20047;-65
2023/09/30 03:23:35;;;;;;;18.95;5.10;;;11.50;84.90;;;;;;5085808;28;20043;-66
2023/09/30 03:26:00;;;;;;;13.00;4.95;;;11.40;84.80;;;;;;5092559;28;20047;-66
2023/09/30 03:28:27;;;;;;;17.38;5.15;;;11.50;84.90;;;;;;5089995;28;20040;-66
2023/09/30 03:30:53;;;;;;;16.52;5.22;;;11.40;84.90;;;;;;5088337;28;20044;-65
2023/09/30 03:33:18;;;;;;;21.67;5.30;;;11.40;85.00;;;;;;5089832;28;20055;-65
2023/09/30 03:35:44;;;;;;;17.95;5.47;;;11.40;85.00;;;;;;5089953;28;20075;-66
2023/09/30 03:38:12;;;;;;;15.35;6.03;;;11.40;85.00;;;;;;5090105;28;20146;-66
2023/09/30 03:40:47;;;;;;;21.95;6.20;;;11.40;85.00;;;;;;5089726;28;20087;-66
2023/09/30 03:43:14;;;;;;;21.45;5.95;;;11.40;85.10;;;;;;5089596;28;20052;-66
2023/09/30 03:45:41;;;;;;;17.52;5.68;;;11.40;85.10;;;;;;5089567;28;20125;-66
2023/09/30 03:48:07;;;;;;;15.85;5.80;;;11.40;85.10;;;;;;5078443;28;20049;-65
2023/09/30 03:50:33;;;;;;;20.65;5.95;;;11.30;85.20;;;;;;5069691;28;20048;-66
2023/09/30 03:53:08;;;;;;;16.50;5.95;;;11.30;85.20;;;;;;5068712;28;20051;-65
2023/09/30 03:55:34;;;;;;;17.33;5.60;;;11.30;85.10;;;;;;5087688;28;20055;-66
2023/09/30 03:58:00;;;;;;;26.83;5.95;;;11.30;85.20;;;;;;5088254;28;20154;-66
2023/09/30 04:00:26;;;;;;;15.25;5.72;;;11.30;85.10;;;;;;5089882;28;20495;-66
2023/09/30 04:02:54;;;;;;;22.52;6.00;;;11.30;85.00;;;;;;5077746;28;20052;-66
2023/09/30 04:05:26;;;;;;;19.00;5.78;;;11.20;85.10;;;;;;5088544;28;20105;-66
2023/09/30 04:07:52;;;;;;;15.50;5.50;;;11.20;85.10;;;;;;5089362;28;20079;-65
2023/09/30 04:10:17;;;;;;;21.42;5.80;;;11.20;85.20;;;;;;5089416;28;20075;-65
2023/09/30 04:12:43;;;;;;;16.08;5.72;;;11.20;85.10;;;;;;5089486;28;20411;-66
2023/09/30 04:15:12;;;;;;;22.75;6.00;;;11.10;85.20;;;;;;5089125;28;20839;-66
2023/09/30 04:17:38;;;;;;;17.40;5.90;;;11.10;85.30;;;;;;5075344;28;20516;-65
2023/09/30 04:20:09;;;;;;;20.65;6.00;;;11.10;85.30;;;;;;5080952;28;20059;-65
2023/09/30 04:22:35;;;;;;;18.35;5.38;;;11.10;85.40;;;;;;5087435;28;20055;-66
2023/09/30 04:25:06;;;;;;;18.90;6.03;;;11.10;85.50;;;;;;5088687;28;20071;-65
2023/09/30 04:27:31;;;;;;;17.95;5.90;;;11.10;85.50;;;;;;5080332;28;20123;-66
2023/09/30 04:29:57;;;;;;;20.15;6.15;;;11.10;85.40;;;;;;5070705;28;20521;-65
2023/09/30 04:32:22;;;;;;;15.18;5.35;;;11.10;85.40;;;;;;5083793;28;20142;-65
2023/09/30 04:34:48;;;;;;;17.73;5.28;;;11.10;85.50;;;;;;5084087;28;20052;-66
2023/09/30 04:37:14;;;;;;;20.55;6.03;;;11.10;85.50;;;;;;5086761;28;20055;-66
2023/09/30 04:39:39;;;;;;;18.27;5.50;;;11.10;85.40;;;;;;5075093;28;20067;-66
2023/09/30 04:42:05;;;;;;;19.60;6.00;;;11.10;85.40;;;;;;5085950;28;20075;-66
2023/09/30 04:44:32;;;;;;;18.80;6.35;;;11.10;85.50;;;;;;5081594;28;20044;-66
2023/09/30 04:46:58;;;;;;;23.85;6.40;;;11.10;85.60;;;;;;5072102;28;20155;-65
2023/09/30 04:49:24;;;;;;;19.80;5.50;;;11.10;85.50;;;;;;5089081;28;20059;-65
2023/09/30 04:51:50;;;;;;;17.80;6.63;;;11.10;85.50;;;;;;5087516;28;20044;-65
2023/09/30 04:54:15;;;;;;;19.90;6.78;;;11.10;85.60;;;;;;5088052;28;20074;-65
2023/09/30 04:56:41;;;;;;;19.33;6.50;;;11.20;85.70;;;;;;5089344;28;20052;-66
2023/09/30 04:59:07;;;;;;;19.02;5.60;;;11.20;85.70;;;;;;5087816;28;20040;-65
2023/09/30 05:01:33;;;;;;;15.63;5.63;;;11.20;85.70;;;;;;5088843;28;20472;-65
2023/09/30 05:03:59;;;;;;;18.80;6.53;;;11.20;85.60;;;;;;5088621;28;20527;-65
2023/09/30 05:06:24;;;;;;;19.65;6.68;;;11.10;85.60;;;;;;5088424;28;20123;-66
2023/09/30 05:08:50;;;;;;;19.23;6.47;;;11.10;85.70;;;;;;5088535;28;20052;-66
2023/09/30 05:11:16;;;;;;;22.75;6.95;;;11.10;85.70;;;;;;5087813;28;20481;-66
2023/09/30 05:13:41;;;;;;;16.58;7.10;;;11.10;85.70;;;;;;5079311;28;20394;-66
2023/09/30 05:16:07;;;;;;;20.15;7.43;;;11.10;85.70;;;;;;5082558;28;20043;-65
2023/09/30 05:18:33;;;;;;;19.88;7.75;;;11.10;85.70;;;;;;5088508;28;20484;-66
2023/09/30 05:21:00;;;;;;;23.38;8.23;;;11.10;85.90;;;;;;5086748;28;20077;-65
2023/09/30 05:23:25;;;;;;;20.92;7.65;;;11.10;85.80;;;;;;5078134;28;20059;-66
2023/09/30 05:25:52;;;;;;;21.90;7.95;;;11.10;85.90;;;;;;5070462;28;20048;-66
2023/09/30 05:28:20;;;;;;;24.92;8.07;;;11.10;85.90;;;;;;5078487;28;20107;-65
2023/09/30 05:30:46;;;;;;;33.60;9.07;;;11.10;85.80;;;;;;5080523;28;20076;-65
2023/09/30 05:33:14;;;;;;;25.67;8.35;;;11.10;85.80;;;;;;5087874;28;20083;-65
2023/09/30 05:35:43;;;;;;;18.00;8.52;;;11.10;85.90;;;;;;5087897;28;20052;-65
2023/09/30 05:38:10;;;;;;;22.20;7.55;;;11.10;85.80;;;;;;5089547;28;20537;-65
2023/09/30 05:40:36;;;;;;;19.25;8.30;;;11.10;85.80;;;;;;5085555;28;20048;-65
2023/09/30 05:43:01;;;;;;;27.02;9.13;;;11.10;85.80;;;;;;5092518;28;20044;-65
2023/09/30 05:45:30;;;;;;;26.92;8.75;;;11.10;85.80;;;;;;5090137;28;20051;-65
2023/09/30 05:47:57;;;;;;;27.23;9.43;;;11.10;85.80;;;;;;5080538;28;20055;-65
2023/09/30 05:50:26;;;;;;;24.45;8.52;;;11.10;85.90;;;;;;5091377;28;20508;-64
2023/09/30 05:52:54;;;;;;;27.45;9.55;;;11.10;86.00;;;;;;5092256;28;20070;-66
2023/09/30 05:55:21;;;;;;;25.20;9.90;;;11.10;86.00;;;;;;5092264;28;20048;-65
2023/09/30 05:57:49;;;;;;;22.38;9.77;;;11.10;85.90;;;;;;5090938;28;20059;-65
2023/09/30 06:00:22;;;;;;;23.85;9.57;;;11.10;86.00;;;;;;5092014;28;20044;-65
2023/09/30 06:02:51;;;;;;;23.33;9.68;;;11.10;86.00;;;;;;5091268;28;20048;-65
2023/09/30 06:05:22;;;;;;;26.92;9.73;;;11.10;86.10;;;;;;5091986;28;20048;-65
2023/09/30 06:07:48;;;;;;;26.27;10.02;;;11.10;86.00;;;;;;5091636;28;20567;-65
2023/09/30 06:10:20;;;;;;;28.88;10.55;;;11.10;86.00;;;;;;5071637;28;20090;-65
2023/09/30 06:12:47;;;;;;;29.58;11.77;;;11.10;86.00;;;;;;5093821;28;20100;-65
2023/09/30 06:15:14;;;;;;;20.50;9.63;;;11.10;86.00;;;;;;5091411;28;20593;-65
2023/09/30 06:17:40;;;;;;;32.33;10.32;;;11.10;85.90;;;;;;5091716;28;20059;-65
2023/09/30 06:20:09;;;;;;;23.85;10.60;;;11.10;85.90;;;;;;5091772;28;20054;-66
2023/09/30 06:22:35;;;;;;;25.08;10.80;;;11.10;85.90;;;;;;5075880;28;20045;-65
2023/09/30 06:25:02;;;;;;;27.02;9.88;;;11.10;85.90;;;;;;5071301;28;20401;-65
2023/09/30 06:27:27;;;;;;;29.00;10.43;;;11.10;85.90;;;;;;5072398;28;20079;-65
2023/09/30 06:29:54;;;;;;;27.90;11.38;;;11.00;85.90;;;;;;5085996;28;20072;-66
2023/09/30 06:32:20;;;;;;;27.55;10.85;;;11.00;85.90;;;;;;5091365;28;20130;-65
2023/09/30 06:34:45;;;;;;;24.23;11.40;;;11.00;86.00;;;;;;5091511;28;20139;-65
2023/09/30 06:37:11;;;;;;;30.42;11.38;;;11.10;85.90;;;;;;5091117;28;20048;-65
2023/09/30 06:39:37;;;;;;;29.65;11.43;;;11.10;86.10;;;;;;5073781;28;20127;-66
2023/09/30 06:42:03;;;;;;;29.77;12.00;;;11.10;86.10;;;;;;5091362;28;20087;-65
2023/09/30 06:44:31;;;;;;;29.55;12.27;;;11.10;86.20;;;;;;5090941;28;20052;-65
2023/09/30 06:46:56;;;;;;;28.10;12.35;;;11.10;86.20;;;;;;5076668;28;20060;-65
2023/09/30 06:49:22;;;;;;;31.83;12.25;;;11.10;86.30;;;;;;5082656;28;20394;-65
2023/09/30 06:51:48;;;;;;;25.52;12.15;;;11.20;86.40;;;;;;5070612;28;20044;-65
2023/09/30 06:54:13;;;;;;;30.45;11.98;;;11.30;86.40;;;;;;5070587;28;20055;-65
2023/09/30 06:56:41;;;;;;;23.63;11.38;;;11.30;86.30;;;;;;5070443;28;20041;-65
2023/09/30 06:59:07;;;;;;;25.48;11.85;;;11.30;86.30;;;;;;5069098;28;20059;-65
2023/09/30 07:01:32;;;;;;;24.73;11.30;;;11.40;86.30;;;;;;5070835;28;20044;-65
2023/09/30 07:03:58;;;;;;;23.55;11.75;;;11.40;86.40;;;;;;5078179;28;20036;-66
2023/09/30 07:06:27;;;;;;;29.73;12.32;;;11.50;86.40;;;;;;5076878;28;20044;-66
2023/09/30 07:08:53;;;;;;;31.77;11.90;;;11.50;86.50;;;;;;5090664;28;20040;-66
2023/09/30 07:11:29;;;;;;;24.38;11.05;;;11.60;86.40;;;;;;5090530;28;20131;-65
2023/09/30 07:13:55;;;;;;;26.90;11.13;;;11.70;86.40;;;;;;5090730;28;20116;-65
2023/09/30 07:16:21;;;;;;;25.70;11.00;;;11.70;86.40;;;;;;5090792;28;20181;-65
2023/09/30 07:18:47;;;;;;;26.83;10.75;;;11.80;86.30;;;;;;5090722;28;20135;-65
2023/09/30 07:21:13;;;;;;;25.33;11.40;;;11.90;86.40;;;;;;5090091;28;20055;-65
2023/09/30 07:23:39;;;;;;;26.38;11.68;;;11.90;86.40;;;;;;5079642;28;20041;-65
2023/09/30 07:26:04;;;;;;;26.30;10.82;;;11.90;86.30;;;;;;5069859;28;20037;-65
2023/09/30 07:28:31;;;;;;;26.65;12.98;;;12.00;86.30;;;;;;5069961;28;20041;-65
2023/09/30 07:30:57;;;;;;;22.67;10.55;;;12.00;86.30;;;;;;5083433;28;20051;-65
2023/09/30 07:33:22;;;;;;;27.02;11.40;;;12.10;86.30;;;;;;5090318;28;20043;-66
2023/09/30 07:35:49;;;;;;;25.50;10.55;;;12.10;86.30;;;;;;5074479;28;20115;-65
2023/09/30 07:38:15;;;;;;;23.45;9.95;;;12.20;86.30;;;;;;5078869;28;20405;-65
2023/09/30 07:40:41;;;;;;;23.17;10.65;;;12.30;86.30;;;;;;5082946;28;20051;-65
2023/09/30 07:43:07;;;;;;;24.25;10.00;;;12.30;86.30;;;;;;5089182;28;20058;-66
2023/09/30 07:45:32;;;;;;;22.48;10.07;;;12.40;86.20;;;;;;5087356;28;20039;-65
2023/09/30 07:48:04;;;;;;;27.42;10.57;;;12.50;86.20;;;;;;5078444;28;20078;-65
2023/09/30 07:50:30;;;;;;;21.23;10.23;;;12.50;86.20;;;;;;5089447;28;20433;-65
2023/09/30 07:52:55;;;;;;;20.30;10.13;;;12.60;86.20;;;;;;5095888;28;20567;-65
2023/09/30 07:55:21;;;;;;;22.75;10.50;;;12.70;86.20;;;;;;5099259;28;20173;-66
2023/09/30 07:57:47;;;;;;;22.15;10.50;;;12.70;86.20;;;;;;5109686;28;20071;-65
2023/09/30 08:00:16;;;;;;;21.27;10.13;;;12.80;86.20;;;;;;5096074;28;20125;-66
2023/09/30 08:02:43;;;;;;;17.38;9.00;;;12.90;86.10;;;;;;5079058;28;20123;-65
2023/09/30 08:05:09;;;;;;;19.70;8.18;;;12.90;86.10;;;;;;5082525;28;20045;-65
2023/09/30 08:07:35;;;;;;;23.17;8.88;;;13.00;86.00;;;;;;5068889;28;20044;-66
2023/09/30 08:10:04;;;;;;;21.52;9.45;;;13.10;85.90;;;;;;5076539;28;20054;-66
2023/09/30 08:12:30;;;;;;;19.45;8.77;;;13.10;85.90;;;;;;5092114;28;20193;-65
2023/09/30 08:14:56;;;;;;;17.48;8.65;;;13.30;85.80;;;;;;5069535;28;20123;-66
2023/09/30 08:17:21;;;;;;;15.73;8.18;;;13.30;85.60;;;;;;5070389;28;20040;-66
2023/09/30 08:19:48;;;;;;;18.05;8.60;;;13.40;85.50;;;;;;5069074;28;20109;-65
2023/09/30 08:22:14;;;;;;;24.92;8.93;;;13.50;85.50;;;;;;5077880;28;20040;-66
2023/09/30 08:24:40;;;;;;;20.80;8.65;;;13.60;85.50;;;;;;5082935;28;20065;-66
2023/09/30 08:27:06;;;;;;;22.40;8.68;;;13.60;85.50;;;;;;5085823;28;20051;-65
2023/09/30 08:29:36;;;;;;;21.30;8.57;;;13.70;85.60;;;;;;5077411;28;20495;-65
2023/09/30 08:32:02;;;;;;;21.13;8.07;;;13.90;85.40;;;;;;5089169;28;20048;-66
2023/09/30 08:34:29;;;;;;;20.20;7.88;;;13.90;85.50;;;;;;5071439;28;20555;-65
2023/09/30 08:36:55;;;;;;;20.35;7.90;;;14.00;85.40;;;;;;5089065;28;20040;-65
2023/09/30 08:39:20;;;;;;;19.65;7.40;;;14.10;85.20;;;;;;5084966;28;20496;-64
2023/09/30 08:41:46;;;;;;;19.90;7.10;;;14.10;85.20;;;;;;5083961;28;20076;-66
2023/09/30 08:44:12;;;;;;;18.33;6.88;;;14.20;85.00;;;;;;5089295;28;20135;-65
2023/09/30 08:46:40;;;;;;;17.75;6.85;;;14.30;85.00;;;;;;5088181;28;20622;-65
2023/09/30 08:49:06;;;;;;;19.23;6.47;;;14.40;85.00;;;;;;5071215;28;20057;-65
2023/09/30 08:51:32;;;;;;;18.90;6.30;;;14.50;84.70;;;;;;5068561;28;20556;-65
2023/09/30 08:53:59;;;;;;;15.20;5.55;;;14.60;84.70;;;;;;5067955;28;20127;-65
2023/09/30 08:56:29;;;;;;;19.10;5.50;;;14.70;84.30;;;;;;5071705;28;20097;-66
2023/09/30 08:58:58;;;;;;;20.73;5.53;;;14.80;84.20;;;;;;5078321;28;20606;-66
2023/09/30 09:01:25;;;;;;;21.48;5.30;;;14.90;83.60;;;;;;5080881;28;20081;-65
2023/09/30 09:03:52;;;;;;;15.55;5.15;;;14.90;83.70;;;;;;5088311;28;20048;-65
2023/09/30 09:06:22;;;;;;;16.80;4.97;;;15.00;83.20;;;;;;5075519;28;20098;-66
2023/09/30 09:08:48;;;;;;;14.93;4.50;;;15.00;83.10;;;;;;5089356;28;20040;-66
2023/09/30 09:11:14;;;;;;;15.10;4.35;;;15.10;82.90;;;;;;5074518;28;20044;-65
2023/09/30 09:15:50;;;;;;;15.40;5.18;;;15.40;81.60;;;;;;5082591;27;20491;-88
2023/09/30 09:18:33;;;;;;;16.25;4.65;;;15.40;82.40;;;;;;5073624;28;20086;-86
2023/09/30 09:21:20;;;;;;;15.10;4.50;;;15.40;82.10;;;;;;5076810;28;20051;-87
2023/09/30 09:23:51;;;;;;;19.60;5.55;;;15.50;82.00;;;;;;5089566;28;20406;-86
2023/09/30 09:26:25;;;;;;;13.88;5.78;;;15.60;82.10;;;;;;5089573;28;20486;-90
2023/09/30 09:29:00;;;;;;;15.25;4.70;;;15.60;81.50;;;;;;5090753;28;20070;-87
2023/09/30 09:31:34;;;;;;;15.18;4.90;;;15.70;81.90;;;;;;5089627;28;20080;-86
2023/09/30 09:34:01;;;;;;;16.85;5.20;;;15.80;81.50;;;;;;5088978;28;20482;-89
2023/09/30 09:36:44;;;;;;;19.70;4.75;;;15.80;81.80;;;;;;5087608;28;20044;-93
2023/09/30 09:39:13;;;;;;;14.90;4.30;;;15.90;80.20;;;;;;5073298;28;20506;-88
2023/09/30 09:41:52;;;;;;;14.18;4.32;;;16.00;80.00;;;;;;5069312;28;20059;-87
2023/09/30 09:44:22;;;;;;;13.98;3.80;;;16.00;80.10;;;;;;5090138;28;20398;-91
2023/09/30 09:46:50;;;;;;;14.60;3.53;;;16.10;80.60;;;;;;5087054;28;20444;-87
2023/09/30 09:49:20;;;;;;;12.35;3.50;;;16.20;80.70;;;;;;5072376;28;20047;-87
2023/09/30 09:51:47;;;;;;;12.77;3.07;;;16.20;80.40;;;;;;5077380;28;20134;-89
2023/09/30 09:54:15;;;;;;;11.65;3.22;;;16.20;79.90;;;;;;5072706;28;20056;-85
2023/09/30 09:56:45;;;;;;;15.73;3.35;;;16.20;80.10;;;;;;5089182;28;20486;-92
2023/09/30 09:59:12;;;;;;;10.52;2.78;;;16.20;79.10;;;;;;5072867;28;20052;-89
2023/09/30 10:01:40;;;;;;;12.07;2.92;;;16.10;77.50;;;;;;5089857;28;20529;-88
2023/09/30 10:04:06;;;;;;;15.05;2.90;;;16.10;77.90;;;;;;5072154;28;20478;-87
2023/09/30 10:06:38;;;;;;;11.52;2.97;;;16.10;78.20;;;;;;5089611;28;20051;-89
2023/09/30 10:09:07;;;;;;;10.15;2.92;;;16.10;77.90;;;;;;5089312;28;20139;-87
2023/09/30 10:11:34;;;;;;;16.55;2.95;;;16.10;78.00;;;;;;5073218;28;20047;-88
2023/09/30 10:14:02;;;;;;;12.38;2.58;;;16.10;77.80;;;;;;5089092;28;20161;-90
2023/09/30 10:16:48;;;;;;;16.83;3.17;;;16.10;77.20;;;;;;5094556;28;20089;-88
2023/09/30 10:19:17;;;;;;;16.13;2.58;;;16.10;75.60;;;;;;5084440;28;20056;-86
2023/09/30 10:22:18;;;;;;;11.77;2.33;;;16.10;76.80;;;;;;5088961;28;20056;-90
2023/09/30 10:24:45;;;;;;;12.07;2.47;;;16.20;75.70;;;;;;5069428;28;20514;-86
2023/09/30 10:27:32;;;;;;;13.98;2.97;;;16.20;76.30;;;;;;5054211;28;20043;-91
2023/09/30 10:30:16;;;;;;;15.32;2.78;;;16.30;74.70;;;;;;5067159;28;20052;-87
2023/09/30 10:32:51;;;;;;;14.30;2.97;;;16.40;76.60;;;;;;5045041;28;20102;-87
2023/09/30 10:35:17;;;;;;;13.02;2.72;;;16.50;76.20;;;;;;5073863;28;20044;-84
2023/09/30 10:37:44;;;;;;;10.38;2.35;;;16.60;76.50;;;;;;5074224;28;20040;-85
2023/09/30 10:40:26;;;;;;;13.05;2.53;;;16.80;76.50;;;;;;5055529;28;20101;-87
2023/09/30 10:42:54;;;;;;;10.82;2.90;;;16.80;75.50;;;;;;5065934;28;20052;-89
2023/09/30 10:45:48;;;;;;;14.02;2.53;;;16.80;76.70;;;;;;5078648;28;20064;-91
2023/09/30 10:48:32;;;;;;;12.40;2.70;;;16.80;73.50;;;;;;5059462;28;20044;-92
2023/09/30 10:51:00;;;;;;;9.05;2.13;;;16.80;75.20;;;;;;5068825;28;20052;-89
2023/09/30 10:53:30;;;;;;;12.25;2.30;;;16.70;75.50;;;;;;5080023;28;20059;-91
2023/09/30 10:55:57;;;;;;;11.20;2.30;;;16.70;75.20;;;;;;5065078;28;20371;-87
2023/09/30 10:58:43;;;;;;;10.10;2.20;;;16.60;74.70;;;;;;5084887;28;20054;-88
2023/09/30 11:01:09;;;;;;;12.15;1.95;;;16.60;74.60;;;;;;5069330;28;20048;-89
2023/09/30 11:03:36;;;;;;;8.70;1.80;;;16.60;74.80;;;;;;5064329;28;20436;-87
2023/09/30 11:06:03;;;;;;;10.18;2.28;;;16.50;74.40;;;;;;5082936;28;20048;-86
2023/09/30 11:08:30;;;;;;;12.93;2.20;;;16.50;74.30;;;;;;5081229;28;20047;-88
2023/09/30 11:10:56;;;;;;;9.25;2.13;;;16.50;74.50;;;;;;5077580;28;20048;-91
2023/09/30 11:13:23;;;;;;;10.65;2.15;;;16.50;74.10;;;;;;5059223;28;20052;-89
2023/09/30 11:16:00;;;;;;;8.82;2.20;;;16.50;73.40;;;;;;5077951;28;20056;-91
2023/09/30 11:18:26;;;;;;;5.90;2.05;;;16.40;73.40;;;;;;5063625;28;20048;-88
2023/09/30 11:21:04;;;;;;;9.75;2.17;;;16.50;74.20;;;;;;5076183;28;20105;-88
2023/09/30 11:23:30;;;;;;;12.50;2.17;;;16.50;74.00;;;;;;5060056;28;20409;-89
2023/09/30 11:25:56;;;;;;;12.15;2.33;;;16.40;74.40;;;;;;5057562;28;20087;-88
2023/09/30 11:28:25;;;;;;;7.55;2.00;;;16.40;74.10;;;;;;5078183;28;20450;-84
2023/09/30 11:30:58;;;;;;;14.95;2.35;;;16.40;74.30;;;;;;5079484;28;20076;-87
2023/09/30 11:33:25;;;;;;;10.75;2.40;;;16.40;73.40;;;;;;5079525;28;20402;-87
2023/09/30 11:36:00;;;;;;;9.82;2.35;;;16.40;73.80;;;;;;5082471;28;20052;-89
2023/09/30 11:38:29;;;;;;;10.07;2.00;;;16.40;73.60;;;;;;5057383;28;20102;-83
2023/09/30 11:41:06;;;;;;;9.63;2.17;;;16.40;74.00;;;;;;5073848;28;20040;-82
2023/09/30 11:43:35;;;;;;;13.57;2.40;;;16.40;74.30;;;;;;5080229;28;20102;-88
2023/09/30 11:46:08;;;;;;;11.18;2.00;;;16.50;74.10;;;;;;5078748;28;20482;-86
2023/09/30 11:48:38;;;;;;;10.02;2.05;;;16.50;74.30;;;;;;5076132;28;20047;-88
2023/09/30 11:51:04;;;;;;;11.82;2.15;;;16.60;74.40;;;;;;5079265;28;20171;-85
2023/09/30 11:53:31;;;;;;;12.98;2.47;;;16.60;74.50;;;;;;5076735;28;20044;-86
2023/09/30 11:56:02;;;;;;;10.60;2.55;;;16.70;74.50;;;;;;5077963;28;20044;-86
2023/09/30 11:58:28;;;;;;;;;;;16.70;74.20;;;;;;5078453;28;20040;-87
2023/09/30 12:00:55;;;;;;;8.80;2.28;;;16.80;74.00;;;;;;5074371;28;19924;-87
2023/09/30 12:03:21;;;;;;;12.48;2.08;;;16.80;74.20;;;;;;5072051;28;20083;-88
2023/09/30 12:05:47;;;;;;;12.45;2.55;;;16.80;74.30;;;;;;5072622;28;20052;-87
2023/09/30 12:08:14;;;;;;;11.93;2.63;;;16.90;74.20;;;;;;5072277;28;20546;-85
2023/09/30 12:10:40;;;;;;;12.40;2.42;;;17.00;74.20;;;;;;5055088;28;20087;-87
2023/09/30 12:13:06;;;;;;;11.05;2.38;;;17.00;74.40;;;;;;5090564;28;20080;-87
2023/09/30 12:15:31;;;;;;;9.43;2.35;;;17.10;74.50;;;;;;5072007;28;20058;-87
2023/09/30 12:17:57;;;;;;;10.35;2.25;;;17.20;73.60;;;;;;5088821;28;20158;-85
2023/09/30 12:20:23;;;;;;;7.88;1.70;;;17.20;71.70;;;;;;5069560;28;20054;-89
2023/09/30 12:22:49;;;;;;;10.93;2.25;;;17.20;71.10;;;;;;5072244;28;20040;-91
2023/09/30 12:25:18;;;;;;;10.48;1.80;;;17.30;70.80;;;;;;5056399;28;20063;-93
2023/09/30 12:27:46;;;;;;;9.18;1.70;;;17.30;69.90;;;;;;5061176;28;20051;-92
2023/09/30 12:30:13;;;;;;;9.38;2.00;;;17.20;69.20;;;;;;5047572;28;20526;-91
2023/09/30 12:32:39;;;;;;;8.57;1.88;;;17.20;69.50;;;;;;5053504;28;20090;-87
2023/09/30 12:35:06;;;;;;;8.77;2.08;;;17.10;70.00;;;;;;5068896;28;20104;-86
2023/09/30 12:37:32;;;;;;;9.63;1.65;;;17.00;70.80;;;;;;5062424;28;20095;-86
2023/09/30 12:39:58;;;;;;;7.55;2.17;;;17.00;71.50;;;;;;5066566;28;20113;-92